Time;durP1;ratioP1;P1;durP2;ratioP2;P2;SDS_P1;SDS_P2;PMS_P1;PMS_P2;Temp;Humidity;BMP_temperature;BMP_pressure;BME280_temperature;BME280_humidity;BME280_pressure;Samples;Min_cycle;Max_cycle;Signal;HPM_P1;HPM_P2
2022/08/30 04:54:34;;;;;;;6.90;6.30;;;;;;;;;;6288519;22;20394;-89
2022/08/30 05:35:01;;;;;;;6.22;6.00;;;;;;;;;;6356396;22;20405;-92
2022/08/30 05:40:19;;;;;;;7.45;7.05;;;;;;;;;;6334940;22;20388;-91
2022/08/30 05:43:03;;;;;;;7.10;6.70;;;;;;;;;;6317796;22;20377;-91
2022/08/30 05:45:33;;;;;;;7.13;6.65;;;;;;;;;;6292457;22;20358;-91
2022/08/30 06:28:15;;;;;;;7.67;6.93;;;;;;;;;;6289932;22;20193;-90
2022/08/30 06:38:56;;;;;;;8.53;7.40;;;;;;;;;;6348678;22;20478;-91
2022/08/30 06:41:23;;;;;;;6.17;5.80;;;;;;;;;;6351081;22;20367;-90
2022/08/30 06:43:49;;;;;;;5.80;5.50;;;;;;;;;;6316959;22;20450;-91
2022/08/30 06:46:21;;;;;;;5.63;5.43;;;;;;;;;;6345646;22;20409;-91
2022/08/30 06:48:47;;;;;;;6.20;5.70;;;;;;;;;;6342706;22;20399;-89
2022/08/30 06:51:13;;;;;;;4.87;4.77;;;;;;;;;;6345758;22;20417;-92
2022/08/30 06:53:39;;;;;;;5.87;5.23;;;;;;;;;;6343532;22;20363;-90
2022/08/30 06:56:11;;;;;;;6.47;6.18;;;;;;;;;;6318613;22;20390;-91
2022/08/30 06:58:37;;;;;;;7.17;6.47;;;;;;;;;;6317921;22;20167;-92
2022/08/30 07:01:04;;;;;;;5.83;5.43;;;;;;;;;;6336681;22;20427;-94
2022/08/30 07:03:30;;;;;;;5.90;5.70;;;;;;;;;;6307980;22;20391;-91
2022/08/30 07:05:57;;;;;;;5.60;5.40;;;;;;;;;;6310373;22;20382;-91
2022/08/30 07:08:23;;;;;;;6.57;6.07;;;;;;;;;;6303614;22;20505;-92
2022/08/30 07:10:50;;;;;;;6.93;6.32;;;;;;;;;;6305740;22;20867;-93
2022/08/30 07:13:18;;;;;;;6.22;5.80;;;;;;;;;;6306980;22;20372;-93
2022/08/30 07:15:45;;;;;;;6.47;5.88;;;;;;;;;;6301172;22;20748;-92
2022/08/30 07:20:57;;;;;;;7.32;6.15;;;;;;;;;;6335086;22;20359;-86
2022/08/30 07:23:23;;;;;;;6.20;5.70;;;;;;;;;;6305860;22;20728;-91
2022/08/30 07:25:56;;;;;;;12.23;11.32;;;;;;;;;;6306378;22;20364;-91
2022/08/30 07:28:22;;;;;;;6.60;6.10;;;;;;;;;;6333229;22;20353;-93
2022/08/30 07:30:48;;;;;;;5.43;5.13;;;;;;;;;;6308191;22;20387;-92
2022/08/30 07:33:14;;;;;;;7.00;6.60;;;;;;;;;;6309374;22;20465;-92
2022/08/30 07:35:40;;;;;;;8.43;7.82;;;;;;;;;;6307047;22;20456;-89
2022/08/30 07:38:06;;;;;;;6.88;6.57;;;;;;;;;;6306994;22;20376;-90
2022/08/30 07:40:32;;;;;;;6.65;6.20;;;;;;;;;;6307055;22;20401;-90
2022/08/30 07:43:01;;;;;;;6.70;6.30;;;;;;;;;;6304191;22;20403;-92
2022/08/30 07:46:04;;;;;;;6.60;6.20;;;;;;;;;;6316278;22;20364;-94
2022/08/30 07:54:23;;;;;;;15.35;11.93;;;;;;;;;;6309763;22;20420;-89
2022/08/30 07:56:49;;;;;;;7.68;7.07;;;;;;;;;;6274721;22;20423;-92
2022/08/30 08:15:27;;;;;;;;;;;;;;;;;;;;;
2022/08/30 08:17:53;;;;;;;5.83;5.53;;;;;;;;;;6332320;22;21124;-88
2022/08/30 08:20:19;;;;;;;12.17;10.97;;;;;;;;;;6308429;22;20385;-90
2022/08/30 08:25:57;;;;;;;5.27;4.87;;;;;;;;;;6213585;23;20374;-89
2022/08/30 08:28:23;;;;;;;6.77;5.80;;;;;;;;;;6208536;23;20962;-90
2022/08/30 08:30:50;;;;;;;5.80;5.60;;;;;;;;;;6184452;23;20528;-89
2022/08/30 08:33:19;;;;;;;6.10;5.60;;;;;;;;;;6223790;22;20401;-88
2022/08/30 08:35:52;;;;;;;5.27;5.03;;;;;;;;;;6334320;22;20407;-88
2022/08/30 08:38:18;;;;;;;5.37;5.00;;;;;;;;;;6302268;22;20383;-88
2022/08/30 08:40:54;;;;;;;7.37;4.80;;;;;;;;;;6331653;22;20375;-90
2022/08/30 08:43:25;;;;;;;4.80;4.60;;;;;;;;;;6331011;22;20428;-89
2022/08/30 08:45:57;;;;;;;5.57;5.27;;;;;;;;;;6315293;22;20390;-87
2022/08/30 08:48:38;;;;;;;5.03;4.23;;;;;;;;;;6346774;22;20398;-89
2022/08/30 08:54:09;;;;;;;5.27;4.97;;;;;;;;;;6341378;22;20417;-88
2022/08/30 08:56:36;;;;;;;25.77;5.10;;;;;;;;;;6306913;22;20379;-88
2022/08/30 08:59:20;;;;;;;8.43;5.30;;;;;;;;;;6330771;22;20406;-89
2022/08/30 09:01:54;;;;;;;5.07;4.60;;;;;;;;;;6294758;22;20504;-88
2022/08/30 09:04:28;;;;;;;6.00;5.53;;;;;;;;;;6332870;22;20369;-89
2022/08/30 09:07:05;;;;;;;5.10;4.87;;;;;;;;;;6307316;22;20382;-87
2022/08/30 09:09:32;;;;;;;5.20;4.70;;;;;;;;;;6307590;22;20372;-90
2022/08/30 09:12:12;;;;;;;4.97;4.57;;;;;;;;;;6304727;22;20909;-89
2022/08/30 09:14:46;;;;;;;4.60;4.23;;;;;;;;;;6335430;22;20399;-90
2022/08/30 09:17:13;;;;;;;4.70;4.60;;;;;;;;;;6306791;22;20869;-90
2022/08/30 09:19:41;;;;;;;3.93;3.63;;;;;;;;;;6306180;22;20394;-90
2022/08/30 09:22:31;;;;;;;5.80;4.27;;;;;;;;;;6305466;22;20440;-89
2022/08/30 09:25:26;;;;;;;7.20;4.50;;;;;;;;;;6307502;22;20714;-90
2022/08/30 09:27:54;;;;;;;5.37;5.07;;;;;;;;;;6292176;22;20422;-89
2022/08/30 09:30:22;;;;;;;5.00;4.70;;;;;;;;;;6306635;22;20421;-89
2022/08/30 09:32:58;;;;;;;5.00;4.60;;;;;;;;;;6303505;22;20422;-89
2022/08/30 09:38:29;;;;;;;4.03;3.93;;;;;;;;;;6269887;22;20414;-89
2022/08/30 09:41:31;;;;;;;5.70;5.37;;;;;;;;;;6337684;22;20371;-88
2022/08/30 09:44:06;;;;;;;14.23;6.10;;;;;;;;;;6308642;22;20939;-88
2022/08/30 09:46:32;;;;;;;4.63;4.43;;;;;;;;;;6335479;22;20432;-87
2022/08/30 09:48:58;;;;;;;5.57;4.80;;;;;;;;;;6307231;22;20481;-90
2022/08/30 09:51:39;;;;;;;5.27;4.80;;;;;;;;;;6345728;22;20651;-90
2022/08/30 09:54:24;;;;;;;6.63;4.57;;;;;;;;;;6317801;22;20378;-93
2022/08/30 09:56:59;;;;;;;4.53;4.30;;;;;;;;;;6315241;22;20416;-91
2022/08/30 09:59:49;;;;;;;4.07;3.97;;;;;;;;;;6343293;22;20774;-89
2022/08/30 10:02:34;;;;;;;4.90;4.67;;;;;;;;;;6241420;22;20389;-93
2022/08/30 10:05:12;;;;;;;4.00;3.70;;;;;;;;;;6340830;22;20369;-92
2022/08/30 10:10:54;;;;;;;3.63;3.53;;;;;;;;;;6305017;22;20513;-95
2022/08/30 10:13:56;;;;;;;3.50;3.40;;;;;;;;;;6346687;22;20490;-92
2022/08/30 10:24:28;;;;;;;4.20;4.10;;;;;;;;;;6310018;22;20447;-93
2022/08/30 10:33:04;;;;;;;4.40;4.10;;;;;;;;;;6336452;22;20477;-95
2022/08/30 10:35:36;;;;;;;2.77;2.77;;;;;;;;;;6328576;22;20409;-93
2022/08/30 10:38:09;;;;;;;3.70;3.40;;;;;;;;;;6356503;22;20410;-92
2022/08/30 10:41:13;;;;;;;4.30;4.00;;;;;;;;;;6327148;22;20443;-94
2022/08/30 10:43:39;;;;;;;4.17;3.70;;;;;;;;;;6327100;22;20463;-89
2022/08/30 10:46:10;;;;;;;3.90;3.80;;;;;;;;;;6317896;22;20428;-89
2022/08/30 10:48:40;;;;;;;4.50;4.10;;;;;;;;;;6334500;22;20411;-90
2022/08/30 10:51:13;;;;;;;3.53;3.40;;;;;;;;;;6308409;22;20418;-89
2022/08/30 10:53:43;;;;;;;3.73;3.63;;;;;;;;;;6306135;22;20449;-88
2022/08/30 10:56:11;;;;;;;4.30;4.10;;;;;;;;;;6308024;22;20402;-90
2022/08/30 10:58:38;;;;;;;4.47;4.07;;;;;;;;;;6307255;22;20421;-89
2022/08/30 11:01:17;;;;;;;3.23;3.03;;;;;;;;;;6307923;22;20478;-90
2022/08/30 11:03:43;;;;;;;3.63;3.53;;;;;;;;;;6306427;22;20385;-88
2022/08/30 11:06:15;;;;;;;6.80;5.17;;;;;;;;;;6306867;22;20418;-90
2022/08/30 11:11:35;;;;;;;3.83;3.53;;;;;;;;;;6335394;22;20446;-90
2022/08/30 11:14:25;;;;;;;4.70;4.40;;;;;;;;;;6319659;22;20966;-93
2022/08/30 11:16:58;;;;;;;4.60;3.90;;;;;;;;;;6321623;22;20817;-92
2022/08/30 11:19:39;;;;;;;4.07;3.87;;;;;;;;;;6290422;22;20688;-95
2022/08/30 11:25:42;;;;;;;5.80;4.13;;;;;;;;;;6342446;22;21026;-94
2022/08/30 11:28:46;;;;;;;;;;;;;;;;;;;;;
2022/08/30 11:31:18;;;;;;;3.60;3.37;;;;;;;;;;6345323;22;20484;-94
2022/08/30 11:33:54;;;;;;;3.60;3.40;;;;;;;;;;6319321;22;20469;-92
2022/08/30 11:36:30;;;;;;;2.60;2.40;;;;;;;;;;6326172;22;20386;-93
2022/08/30 11:38:56;;;;;;;3.97;3.87;;;;;;;;;;6321362;22;20390;-90
2022/08/30 11:41:52;;;;;;;4.80;3.30;;;;;;;;;;6319645;22;20383;-92
2022/08/30 11:44:20;;;;;;;3.90;3.57;;;;;;;;;;6346226;22;20390;-91
2022/08/30 11:46:48;;;;;;;3.63;3.33;;;;;;;;;;6318317;22;20402;-87
2022/08/30 11:49:49;;;;;;;;;;;;;;;;;;;;;
2022/08/30 11:52:22;;;;;;;3.07;2.97;;;;;;;;;;6345648;22;20460;-93
2022/08/30 11:54:58;;;;;;;3.63;3.20;;;;;;;;;;6318482;22;20436;-90
2022/08/30 12:00:50;;;;;;;4.00;3.90;;;;;;;;;;6313287;22;20521;-95
2022/08/30 12:03:57;;;;;;;4.00;3.70;;;;;;;;;;6351256;22;20407;-94
2022/08/30 12:20:51;;;;;;;4.30;3.90;;;;;;;;;;6158421;23;20379;-92
2022/08/30 12:23:50;;;;;;;9.10;4.27;;;;;;;;;;6282220;22;20379;-94
2022/08/30 12:26:22;;;;;;;3.47;3.27;;;;;;;;;;6254696;22;20472;-91
2022/08/30 12:29:34;;;;;;;3.67;3.40;;;;;;;;;;6282289;22;20414;-91
2022/08/30 12:32:03;;;;;;;4.03;3.13;;;;;;;;;;6297047;22;20930;-91
2022/08/30 12:35:05;;;;;;;2.87;2.87;;;;;;;;;;6325879;22;20460;-91
2022/08/30 12:37:41;;;;;;;4.40;4.17;;;;;;;;;;6164846;23;20402;-93
2022/08/30 12:40:16;;;;;;;3.50;3.10;;;;;;;;;;6317928;22;20385;-95
2022/08/30 12:42:51;;;;;;;3.27;3.07;;;;;;;;;;6343551;22;20379;-94
2022/08/30 12:45:19;;;;;;;5.80;2.90;;;;;;;;;;6316511;22;20382;-89
2022/08/30 12:47:45;;;;;;;4.27;4.07;;;;;;;;;;6342147;22;20383;-94
2022/08/30 12:50:14;;;;;;;4.07;3.20;;;;;;;;;;6320046;22;20394;-94
2022/08/30 12:53:00;;;;;;;4.40;4.03;;;;;;;;;;6316691;22;20524;-93
2022/08/30 12:55:36;;;;;;;6.93;6.53;;;;;;;;;;6317232;22;20440;-88
2022/08/30 12:58:14;;;;;;;7.50;5.57;;;;;;;;;;6319923;22;20370;-91
2022/08/30 13:00:41;;;;;;;3.20;3.10;;;;;;;;;;6319230;22;20402;-91
2022/08/30 13:03:32;;;;;;;4.13;3.87;;;;;;;;;;6335605;22;20383;-91
2022/08/30 13:06:02;;;;;;;3.50;3.50;;;;;;;;;;6318956;22;20370;-94
2022/08/30 13:09:02;;;;;;;;;;;;;;;;;;;;;
2022/08/30 13:11:31;;;;;;;3.47;3.30;;;;;;;;;;6331269;22;20442;-90
2022/08/30 13:14:18;;;;;;;3.87;3.63;;;;;;;;;;6312914;22;20450;-89
2022/08/30 13:17:04;;;;;;;3.27;3.17;;;;;;;;;;6313472;22;20366;-94
2022/08/30 13:19:37;;;;;;;3.13;2.93;;;;;;;;;;6314371;22;20859;-88
2022/08/30 13:25:19;;;;;;;3.77;3.47;;;;;;;;;;6344325;22;20424;-89
2022/08/30 13:27:47;;;;;;;3.60;3.50;;;;;;;;;;6340357;22;20354;-89
2022/08/30 13:30:16;;;;;;;3.40;3.07;;;;;;;;;;6313301;22;20399;-95
2022/08/30 13:32:42;;;;;;;3.00;3.00;;;;;;;;;;6312814;22;20430;-92
2022/08/30 13:35:14;;;;;;;7.07;4.10;;;;;;;;;;6316316;22;20446;-95
2022/08/30 13:37:46;;;;;;;3.87;3.67;;;;;;;;;;6318347;22;20379;-93
2022/08/30 13:40:13;;;;;;;4.47;4.20;;;;;;;;;;6340526;22;20878;-93
2022/08/30 13:47:51;;;;;;;3.97;3.87;;;;;;;;;;6349147;22;20430;-91
2022/08/30 13:50:19;;;;;;;11.00;4.60;;;;;;;;;;6309262;22;20754;-91
2022/08/30 13:52:52;;;;;;;4.40;4.30;;;;;;;;;;6309065;22;20450;-93
2022/08/30 13:55:23;;;;;;;4.77;4.43;;;;;;;;;;6310253;22;20407;-90
2022/08/30 13:57:50;;;;;;;4.60;4.50;;;;;;;;;;6310592;22;20387;-89
2022/08/30 14:00:17;;;;;;;3.60;3.60;;;;;;;;;;6301007;22;20592;-96
2022/08/30 14:02:46;;;;;;;3.23;3.13;;;;;;;;;;6307865;22;20402;-92
2022/08/30 14:05:14;;;;;;;4.10;4.00;;;;;;;;;;6308308;22;20790;-91
2022/08/30 14:07:40;;;;;;;3.73;3.53;;;;;;;;;;6311496;22;20449;-96
2022/08/30 14:10:07;;;;;;;6.30;5.80;;;;;;;;;;6309078;22;20376;-91
2022/08/30 14:12:33;;;;;;;3.73;3.63;;;;;;;;;;6312908;22;20488;-93
2022/08/30 14:15:00;;;;;;;3.40;3.30;;;;;;;;;;6314615;22;20395;-93
2022/08/30 14:17:29;;;;;;;3.50;3.20;;;;;;;;;;6310698;22;20395;-91
2022/08/30 14:19:55;;;;;;;3.10;3.00;;;;;;;;;;6308984;22;20388;-92
2022/08/30 14:22:21;;;;;;;3.70;3.50;;;;;;;;;;6313195;22;20399;-91
2022/08/30 14:24:53;;;;;;;2.87;2.87;;;;;;;;;;6316899;22;20447;-87
2022/08/30 14:27:23;;;;;;;3.90;3.80;;;;;;;;;;6319066;22;20391;-93
2022/08/30 14:29:51;;;;;;;4.00;3.70;;;;;;;;;;6318436;22;20388;-92
2022/08/30 14:32:18;;;;;;;3.60;3.50;;;;;;;;;;6327606;22;20473;-92
2022/08/30 14:34:51;;;;;;;4.13;4.00;;;;;;;;;;6324190;22;20383;-95
2022/08/30 14:37:30;;;;;;;3.87;3.60;;;;;;;;;;6324355;22;20636;-90
2022/08/30 14:39:56;;;;;;;4.80;4.00;;;;;;;;;;6324278;22;20368;-93
2022/08/30 14:42:22;;;;;;;3.20;2.90;;;;;;;;;;6315698;22;20495;-91
2022/08/30 14:44:48;;;;;;;5.30;4.90;;;;;;;;;;6317658;22;20402;-89
2022/08/30 14:47:15;;;;;;;3.10;3.00;;;;;;;;;;6323514;22;20406;-91
2022/08/30 14:49:41;;;;;;;3.43;3.23;;;;;;;;;;6320568;22;20446;-92
2022/08/30 14:52:07;;;;;;;3.13;2.93;;;;;;;;;;6319388;22;20937;-91
2022/08/30 14:54:36;;;;;;;4.43;4.30;;;;;;;;;;6319735;22;20380;-92
2022/08/30 14:57:14;;;;;;;3.50;3.30;;;;;;;;;;6324625;22;20411;-90
2022/08/30 14:59:40;;;;;;;3.40;3.30;;;;;;;;;;6321876;22;20433;-91
2022/08/30 15:02:07;;;;;;;3.40;3.40;;;;;;;;;;6309508;22;20417;-91
2022/08/30 15:04:36;;;;;;;3.10;3.00;;;;;;;;;;6312521;22;20425;-91
2022/08/30 15:07:05;;;;;;;4.63;3.50;;;;;;;;;;6312670;22;20482;-91
2022/08/30 15:09:31;;;;;;;3.70;3.70;;;;;;;;;;6311037;22;20391;-91
2022/08/30 15:12:00;;;;;;;3.77;3.67;;;;;;;;;;6314236;22;20415;-95
2022/08/30 15:14:26;;;;;;;4.03;3.53;;;;;;;;;;6310426;22;20427;-87
2022/08/30 15:16:53;;;;;;;3.40;3.33;;;;;;;;;;6313044;22;20384;-92
2022/08/30 15:19:19;;;;;;;3.87;3.53;;;;;;;;;;6311348;22;20817;-93
2022/08/30 15:21:46;;;;;;;3.77;3.67;;;;;;;;;;6314816;22;20378;-91
2022/08/30 15:24:14;;;;;;;3.50;3.40;;;;;;;;;;6316226;22;20388;-93
2022/08/30 15:26:42;;;;;;;7.00;3.57;;;;;;;;;;6316490;22;20395;-92
2022/08/30 15:29:10;;;;;;;6.53;2.97;;;;;;;;;;6312668;22;20448;-87
2022/08/30 15:31:37;;;;;;;4.17;3.97;;;;;;;;;;6317372;22;20513;-93
2022/08/30 15:34:06;;;;;;;4.33;4.17;;;;;;;;;;6318030;22;20460;-90
2022/08/30 15:36:32;;;;;;;3.73;2.90;;;;;;;;;;6320612;22;20379;-90
2022/08/30 15:38:59;;;;;;;3.27;3.17;;;;;;;;;;6319224;22;20400;-90
2022/08/30 15:41:25;;;;;;;3.70;3.60;;;;;;;;;;6318802;22;20367;-91
2022/08/30 15:44:25;;;;;;;3.67;3.37;;;;;;;;;;6325881;22;20388;-93
2022/08/30 15:52:58;;;;;;;4.73;3.90;;;;;;;;;;6338206;22;20458;-94
2022/08/30 15:55:28;;;;;;;3.60;3.53;;;;;;;;;;6349985;22;20395;-90
2022/08/30 15:57:57;;;;;;;4.07;3.97;;;;;;;;;;6329035;22;20402;-87
2022/08/30 16:00:39;;;;;;;4.20;3.50;;;;;;;;;;6356001;22;20514;-95
2022/08/30 16:06:16;;;;;;;4.93;3.73;;;;;;;;;;6349176;22;20439;-91
2022/08/30 16:09:17;;;;;;;;;;;;;;;;;;;;;
2022/08/30 16:11:52;;;;;;;3.50;3.30;;;;;;;;;;6348870;22;20442;-92
2022/08/30 16:14:18;;;;;;;3.17;2.97;;;;;;;;;;6321007;22;20382;-90
2022/08/30 16:29:50;;;;;;;3.37;3.27;;;;;;;;;;6307916;22;20477;-93
2022/08/30 16:32:22;;;;;;;4.67;4.37;;;;;;;;;;6353676;22;20429;-92
2022/08/30 16:35:16;;;;;;;10.20;3.97;;;;;;;;;;6327777;22;20390;-94
2022/08/30 16:38:00;;;;;;;3.20;3.03;;;;;;;;;;6331229;22;20371;-92
2022/08/30 16:40:36;;;;;;;3.63;3.50;;;;;;;;;;6329891;22;20408;-93
2022/08/30 16:43:30;;;;;;;3.17;3.07;;;;;;;;;;6329322;22;20382;-90
2022/08/30 16:46:10;;;;;;;3.20;3.20;;;;;;;;;;6330265;22;20401;-91
2022/08/30 16:48:49;;;;;;;3.23;3.13;;;;;;;;;;6356421;22;20417;-91
2022/08/30 16:51:34;;;;;;;4.07;3.80;;;;;;;;;;6327880;22;20414;-94
2022/08/30 16:54:12;;;;;;;2.70;2.70;;;;;;;;;;6326291;22;20390;-94
2022/08/30 16:56:40;;;;;;;3.43;3.33;;;;;;;;;;6328233;22;20375;-90
2022/08/30 16:59:17;;;;;;;3.20;3.10;;;;;;;;;;6328959;22;20418;-91
2022/08/30 17:09:31;;;;;;;3.57;3.23;;;;;;;;;;6325061;22;20530;-91
2022/08/30 17:12:31;;;;;;;3.10;2.90;;;;;;;;;;6295373;22;20445;-94
2022/08/30 17:20:32;;;;;;;2.97;2.80;;;;;;;;;;6305208;22;21006;-92
2022/08/30 17:25:55;;;;;;;3.80;3.70;;;;;;;;;;6314261;22;20454;-94
2022/08/30 17:28:59;;;;;;;4.37;3.57;;;;;;;;;;6315715;22;20392;-94
2022/08/30 17:40:31;;;;;;;7.00;3.57;;;;;;;;;;6332807;22;20461;-91
2022/08/30 17:43:05;;;;;;;2.83;2.80;;;;;;;;;;6310733;22;20419;-91
2022/08/30 17:45:34;;;;;;;3.30;3.10;;;;;;;;;;6306809;22;20737;-90
2022/08/30 17:48:21;;;;;;;;;;;;;;;;;;;;;
2022/08/30 17:51:35;;;;;;;4.33;3.93;;;;;;;;;;6331501;22;20474;-93
2022/08/30 17:54:19;;;;;;;3.00;3.00;;;;;;;;;;6308709;22;20485;-90
2022/08/30 18:06:08;;;;;;;;;;;;;;;;;;;;;
2022/08/30 18:40:16;;;;;;;3.53;3.40;;;;;;;;;;6354978;22;20453;-92
2022/08/30 18:43:06;;;;;;;4.83;4.63;;;;;;;;;;6331262;22;20443;-96
